Terminal Aerodrome Forecast
Issued by NWS

Home | Current Version | Previous Version | Text Only | Print | Product List | Glossary Off
Versions: 1 2 3 4 5 6 7 8 9 10 11 12 13 14 15

053
FTUS43 KMPX 161120
TAFAXN
TAF
KAXN 161120Z 1612/1712 19007KT 4SM BR SCT250
      TEMPO 1612/1613 1 1/2SM BR
     FM161500 19004KT 5SM BR SCT070 BKN120
     FM162300 VRB03KT P6SM SCT020 BKN100
     FM170200 34003KT 4SM BR SCT100 BKN250
     FM170600 32004KT 1/2SM FG BKN004=

USA.gov is the U.S. government's official web portal to all federal, state and local government web resources and services.